sensor_id;sensor_type;location;lat;lon;timestamp;P1;durP1;ratioP1;P2;durP2;ratioP2
55455;SDS011;63021;52.836;6.376;2023-04-01T00:00:26;4.50;;;4.10;;
55455;SDS011;63021;52.836;6.376;2023-04-01T00:02:51;5.90;;;3.53;;
55455;SDS011;63021;52.836;6.376;2023-04-01T00:05:17;4.75;;;3.53;;
55455;SDS011;63021;52.836;6.376;2023-04-01T00:07:42;4.13;;;3.67;;
55455;SDS011;63021;52.836;6.376;2023-04-01T00:10:09;3.25;;;2.92;;
55455;SDS011;63021;52.836;6.376;2023-04-01T00:12:36;4.10;;;3.58;;
55455;SDS011;63021;52.836;6.376;2023-04-01T00:15:03;4.18;;;3.17;;
55455;SDS011;63021;52.836;6.376;2023-04-01T00:17:30;3.42;;;3.13;;
55455;SDS011;63021;52.836;6.376;2023-04-01T00:19:55;5.00;;;3.53;;
55455;SDS011;63021;52.836;6.376;2023-04-01T00:22:22;3.20;;;3.00;;
55455;SDS011;63021;52.836;6.376;2023-04-01T00:24:47;3.33;;;3.03;;
55455;SDS011;63021;52.836;6.376;2023-04-01T00:27:13;4.53;;;3.33;;
55455;SDS011;63021;52.836;6.376;2023-04-01T00:29:41;4.75;;;3.47;;
55455;SDS011;63021;52.836;6.376;2023-04-01T00:32:07;4.70;;;3.35;;
55455;SDS011;63021;52.836;6.376;2023-04-01T00:34:33;6.60;;;3.85;;
55455;SDS011;63021;52.836;6.376;2023-04-01T00:36:58;6.30;;;3.88;;
55455;SDS011;63021;52.836;6.376;2023-04-01T00:39:23;3.75;;;3.45;;
55455;SDS011;63021;52.836;6.376;2023-04-01T00:41:49;3.58;;;3.22;;
55455;SDS011;63021;52.836;6.376;2023-04-01T00:44:20;4.30;;;3.88;;
55455;SDS011;63021;52.836;6.376;2023-04-01T00:46:47;4.00;;;3.53;;
55455;SDS011;63021;52.836;6.376;2023-04-01T00:49:13;3.92;;;3.63;;
55455;SDS011;63021;52.836;6.376;2023-04-01T00:51:41;3.80;;;3.38;;
55455;SDS011;63021;52.836;6.376;2023-04-01T00:54:08;5.97;;;3.75;;
55455;SDS011;63021;52.836;6.376;2023-04-01T00:56:35;4.20;;;3.80;;
55455;SDS011;63021;52.836;6.376;2023-04-01T00:59:06;5.63;;;4.13;;
55455;SDS011;63021;52.836;6.376;2023-04-01T01:01:35;5.75;;;4.57;;
55455;SDS011;63021;52.836;6.376;2023-04-01T01:04:01;4.45;;;3.25;;
55455;SDS011;63021;52.836;6.376;2023-04-01T01:17:32;3.65;;;3.35;;
55455;SDS011;63021;52.836;6.376;2023-04-01T01:25:40;4.22;;;3.45;;
55455;SDS011;63021;52.836;6.376;2023-04-01T01:28:36;6.53;;;3.78;;
55455;SDS011;63021;52.836;6.376;2023-04-01T01:31:16;6.72;;;3.53;;
55455;SDS011;63021;52.836;6.376;2023-04-01T01:33:59;5.13;;;2.92;;
55455;SDS011;63021;52.836;6.376;2023-04-01T01:36:36;3.80;;;3.47;;
55455;SDS011;63021;52.836;6.376;2023-04-01T01:39:04;3.22;;;2.92;;
55455;SDS011;63021;52.836;6.376;2023-04-01T01:41:32;3.05;;;2.85;;
55455;SDS011;63021;52.836;6.376;2023-04-01T01:44:00;3.88;;;3.38;;
55455;SDS011;63021;52.836;6.376;2023-04-01T01:46:29;6.00;;;3.55;;
55455;SDS011;63021;52.836;6.376;2023-04-01T01:48:56;4.45;;;3.90;;
55455;SDS011;63021;52.836;6.376;2023-04-01T01:51:22;4.68;;;3.05;;
55455;SDS011;63021;52.836;6.376;2023-04-01T01:53:49;3.28;;;2.97;;
55455;SDS011;63021;52.836;6.376;2023-04-01T01:56:15;5.32;;;3.45;;
55455;SDS011;63021;52.836;6.376;2023-04-01T01:58:45;6.38;;;3.88;;
55455;SDS011;63021;52.836;6.376;2023-04-01T02:01:15;3.75;;;3.40;;
55455;SDS011;63021;52.836;6.376;2023-04-01T02:03:44;4.68;;;3.33;;
55455;SDS011;63021;52.836;6.376;2023-04-01T02:06:11;5.47;;;3.05;;
55455;SDS011;63021;52.836;6.376;2023-04-01T02:08:49;3.35;;;3.05;;
55455;SDS011;63021;52.836;6.376;2023-04-01T02:11:17;5.30;;;3.70;;
55455;SDS011;63021;52.836;6.376;2023-04-01T02:16:37;4.15;;;3.50;;
55455;SDS011;63021;52.836;6.376;2023-04-01T02:19:08;6.53;;;3.35;;
55455;SDS011;63021;52.836;6.376;2023-04-01T02:21:35;4.13;;;3.63;;
55455;SDS011;63021;52.836;6.376;2023-04-01T02:24:04;6.35;;;5.22;;
55455;SDS011;63021;52.836;6.376;2023-04-01T02:26:34;4.38;;;3.42;;
55455;SDS011;63021;52.836;6.376;2023-04-01T02:29:00;5.90;;;4.45;;
55455;SDS011;63021;52.836;6.376;2023-04-01T02:31:28;5.65;;;3.45;;
55455;SDS011;63021;52.836;6.376;2023-04-01T02:33:55;5.00;;;3.78;;
55455;SDS011;63021;52.836;6.376;2023-04-01T02:36:21;4.10;;;3.63;;
55455;SDS011;63021;52.836;6.376;2023-04-01T02:38:46;4.38;;;3.42;;
55455;SDS011;63021;52.836;6.376;2023-04-01T02:41:15;5.38;;;4.10;;
55455;SDS011;63021;52.836;6.376;2023-04-01T02:43:40;4.68;;;3.85;;
55455;SDS011;63021;52.836;6.376;2023-04-01T02:46:05;7.32;;;4.10;;
55455;SDS011;63021;52.836;6.376;2023-04-01T02:48:31;4.35;;;3.92;;
55455;SDS011;63021;52.836;6.376;2023-04-01T02:50:56;8.77;;;3.78;;
55455;SDS011;63021;52.836;6.376;2023-04-01T02:53:22;5.32;;;4.20;;
55455;SDS011;63021;52.836;6.376;2023-04-01T02:55:47;4.63;;;4.22;;
55455;SDS011;63021;52.836;6.376;2023-04-01T02:58:15;4.80;;;3.90;;
55455;SDS011;63021;52.836;6.376;2023-04-01T03:00:41;5.18;;;3.92;;
55455;SDS011;63021;52.836;6.376;2023-04-01T03:03:08;5.35;;;4.10;;
55455;SDS011;63021;52.836;6.376;2023-04-01T03:05:34;7.80;;;4.40;;
55455;SDS011;63021;52.836;6.376;2023-04-01T03:07:59;4.90;;;4.40;;
55455;SDS011;63021;52.836;6.376;2023-04-01T03:10:25;5.30;;;3.92;;
55455;SDS011;63021;52.836;6.376;2023-04-01T03:12:50;5.82;;;4.05;;
55455;SDS011;63021;52.836;6.376;2023-04-01T03:15:17;4.53;;;4.05;;
55455;SDS011;63021;52.836;6.376;2023-04-01T03:17:42;5.15;;;4.25;;
55455;SDS011;63021;52.836;6.376;2023-04-01T03:20:08;4.95;;;3.92;;
55455;SDS011;63021;52.836;6.376;2023-04-01T03:22:36;4.60;;;4.20;;
55455;SDS011;63021;52.836;6.376;2023-04-01T03:25:03;6.05;;;4.15;;
55455;SDS011;63021;52.836;6.376;2023-04-01T03:27:29;5.05;;;4.30;;
55455;SDS011;63021;52.836;6.376;2023-04-01T03:29:54;6.13;;;4.18;;
55455;SDS011;63021;52.836;6.376;2023-04-01T03:32:20;5.35;;;4.25;;
55455;SDS011;63021;52.836;6.376;2023-04-01T03:34:45;6.32;;;4.45;;
55455;SDS011;63021;52.836;6.376;2023-04-01T03:37:11;5.82;;;4.22;;
55455;SDS011;63021;52.836;6.376;2023-04-01T03:39:36;4.88;;;4.13;;
55455;SDS011;63021;52.836;6.376;2023-04-01T03:42:01;5.72;;;3.83;;
55455;SDS011;63021;52.836;6.376;2023-04-01T03:44:30;6.85;;;4.32;;
55455;SDS011;63021;52.836;6.376;2023-04-01T03:46:57;4.47;;;3.88;;
55455;SDS011;63021;52.836;6.376;2023-04-01T03:49:22;4.07;;;3.70;;
55455;SDS011;63021;52.836;6.376;2023-04-01T03:51:47;4.35;;;3.75;;
55455;SDS011;63021;52.836;6.376;2023-04-01T03:54:13;5.90;;;4.07;;
55455;SDS011;63021;52.836;6.376;2023-04-01T03:56:38;4.05;;;3.72;;
55455;SDS011;63021;52.836;6.376;2023-04-01T03:59:05;5.90;;;3.67;;
55455;SDS011;63021;52.836;6.376;2023-04-01T04:01:31;4.28;;;3.88;;
55455;SDS011;63021;52.836;6.376;2023-04-01T04:03:57;3.92;;;3.58;;
55455;SDS011;63021;52.836;6.376;2023-04-01T04:06:23;4.97;;;4.00;;
55455;SDS011;63021;52.836;6.376;2023-04-01T04:08:50;5.22;;;3.72;;
55455;SDS011;63021;52.836;6.376;2023-04-01T04:11:15;4.20;;;3.65;;
55455;SDS011;63021;52.836;6.376;2023-04-01T04:13:41;6.53;;;3.65;;
55455;SDS011;63021;52.836;6.376;2023-04-01T04:16:08;4.15;;;3.78;;
55455;SDS011;63021;52.836;6.376;2023-04-01T04:18:35;4.35;;;3.92;;
55455;SDS011;63021;52.836;6.376;2023-04-01T04:21:00;5.78;;;4.40;;
55455;SDS011;63021;52.836;6.376;2023-04-01T04:23:26;5.78;;;4.53;;
55455;SDS011;63021;52.836;6.376;2023-04-01T04:25:57;4.97;;;4.35;;
55455;SDS011;63021;52.836;6.376;2023-04-01T04:28:27;5.95;;;4.82;;
55455;SDS011;63021;52.836;6.376;2023-04-01T04:30:54;6.72;;;5.50;;
55455;SDS011;63021;52.836;6.376;2023-04-01T04:33:20;5.00;;;4.50;;
55455;SDS011;63021;52.836;6.376;2023-04-01T04:35:46;5.70;;;5.10;;
55455;SDS011;63021;52.836;6.376;2023-04-01T04:38:11;6.55;;;5.20;;
55455;SDS011;63021;52.836;6.376;2023-04-01T04:40:37;6.35;;;5.68;;
55455;SDS011;63021;52.836;6.376;2023-04-01T04:43:03;7.45;;;5.68;;
55455;SDS011;63021;52.836;6.376;2023-04-01T04:45:28;5.95;;;5.35;;
55455;SDS011;63021;52.836;6.376;2023-04-01T04:47:54;6.43;;;5.82;;
55455;SDS011;63021;52.836;6.376;2023-04-01T04:50:19;8.30;;;5.43;;
55455;SDS011;63021;52.836;6.376;2023-04-01T04:52:45;6.85;;;5.82;;
55455;SDS011;63021;52.836;6.376;2023-04-01T04:55:10;8.30;;;6.60;;
55455;SDS011;63021;52.836;6.376;2023-04-01T04:57:36;7.30;;;5.88;;
55455;SDS011;63021;52.836;6.376;2023-04-01T05:00:01;7.72;;;5.55;;
55455;SDS011;63021;52.836;6.376;2023-04-01T05:02:27;6.50;;;4.85;;
55455;SDS011;63021;52.836;6.376;2023-04-01T05:04:52;6.80;;;4.82;;
55455;SDS011;63021;52.836;6.376;2023-04-01T05:07:17;6.65;;;4.82;;
55455;SDS011;63021;52.836;6.376;2023-04-01T05:09:43;7.38;;;4.75;;
55455;SDS011;63021;52.836;6.376;2023-04-01T05:12:10;6.38;;;5.00;;
55455;SDS011;63021;52.836;6.376;2023-04-01T05:14:37;5.00;;;4.50;;
55455;SDS011;63021;52.836;6.376;2023-04-01T05:17:03;6.28;;;4.55;;
55455;SDS011;63021;52.836;6.376;2023-04-01T05:19:29;7.32;;;5.20;;
55455;SDS011;63021;52.836;6.376;2023-04-01T05:21:54;8.20;;;5.35;;
55455;SDS011;63021;52.836;6.376;2023-04-01T05:24:20;8.05;;;5.82;;
55455;SDS011;63021;52.836;6.376;2023-04-01T05:26:45;6.70;;;5.70;;
55455;SDS011;63021;52.836;6.376;2023-04-01T05:29:10;5.60;;;4.90;;
55455;SDS011;63021;52.836;6.376;2023-04-01T05:31:36;5.85;;;5.25;;
55455;SDS011;63021;52.836;6.376;2023-04-01T05:34:01;6.40;;;5.45;;
55455;SDS011;63021;52.836;6.376;2023-04-01T05:36:27;5.93;;;4.55;;
55455;SDS011;63021;52.836;6.376;2023-04-01T05:38:54;5.40;;;4.90;;
55455;SDS011;63021;52.836;6.376;2023-04-01T05:41:21;5.65;;;4.40;;
55455;SDS011;63021;52.836;6.376;2023-04-01T05:43:47;5.88;;;4.38;;
55455;SDS011;63021;52.836;6.376;2023-04-01T05:46:12;6.10;;;4.47;;
55455;SDS011;63021;52.836;6.376;2023-04-01T05:48:37;5.13;;;4.10;;
55455;SDS011;63021;52.836;6.376;2023-04-01T05:51:03;5.45;;;4.10;;
55455;SDS011;63021;52.836;6.376;2023-04-01T05:53:29;5.47;;;4.30;;
55455;SDS011;63021;52.836;6.376;2023-04-01T05:55:55;6.38;;;4.82;;
55455;SDS011;63021;52.836;6.376;2023-04-01T05:58:20;5.15;;;4.20;;
55455;SDS011;63021;52.836;6.376;2023-04-01T06:00:45;5.63;;;4.38;;
55455;SDS011;63021;52.836;6.376;2023-04-01T06:03:11;5.32;;;3.95;;
55455;SDS011;63021;52.836;6.376;2023-04-01T06:05:40;6.18;;;4.95;;
55455;SDS011;63021;52.836;6.376;2023-04-01T06:08:12;5.10;;;4.35;;
55455;SDS011;63021;52.836;6.376;2023-04-01T06:10:59;6.28;;;4.30;;
55455;SDS011;63021;52.836;6.376;2023-04-01T06:19:00;4.30;;;3.90;;
55455;SDS011;63021;52.836;6.376;2023-04-01T06:35:31;7.82;;;5.45;;
55455;SDS011;63021;52.836;6.376;2023-04-01T06:38:12;8.27;;;6.18;;
55455;SDS011;63021;52.836;6.376;2023-04-01T06:40:52;5.63;;;5.03;;
55455;SDS011;63021;52.836;6.376;2023-04-01T06:46:45;7.90;;;6.60;;
55455;SDS011;63021;52.836;6.376;2023-04-01T06:57:52;9.65;;;7.13;;
55455;SDS011;63021;52.836;6.376;2023-04-01T07:00:27;12.13;;;7.75;;
55455;SDS011;63021;52.836;6.376;2023-04-01T07:03:02;9.63;;;7.80;;
55455;SDS011;63021;52.836;6.376;2023-04-01T07:05:31;9.80;;;7.60;;
55455;SDS011;63021;52.836;6.376;2023-04-01T07:07:57;9.63;;;7.60;;
55455;SDS011;63021;52.836;6.376;2023-04-01T07:10:39;7.72;;;6.85;;
55455;SDS011;63021;52.836;6.376;2023-04-01T07:13:16;8.80;;;5.22;;
55455;SDS011;63021;52.836;6.376;2023-04-01T07:21:40;8.32;;;6.15;;
55455;SDS011;63021;52.836;6.376;2023-04-01T07:24:13;6.88;;;5.90;;
55455;SDS011;63021;52.836;6.376;2023-04-01T07:26:43;6.47;;;5.00;;
55455;SDS011;63021;52.836;6.376;2023-04-01T07:29:12;5.60;;;4.85;;
55455;SDS011;63021;52.836;6.376;2023-04-01T07:37:17;4.43;;;4.03;;
55455;SDS011;63021;52.836;6.376;2023-04-01T07:42:57;4.90;;;3.20;;
55455;SDS011;63021;52.836;6.376;2023-04-01T07:45:43;3.35;;;2.47;;
55455;SDS011;63021;52.836;6.376;2023-04-01T07:48:16;2.90;;;2.70;;
55455;SDS011;63021;52.836;6.376;2023-04-01T07:51:07;2.97;;;2.63;;
55455;SDS011;63021;52.836;6.376;2023-04-01T07:53:43;3.75;;;3.45;;
55455;SDS011;63021;52.836;6.376;2023-04-01T07:56:15;4.50;;;3.65;;
55455;SDS011;63021;52.836;6.376;2023-04-01T08:01:36;5.40;;;4.90;;
55455;SDS011;63021;52.836;6.376;2023-04-01T08:09:56;8.40;;;6.03;;
55455;SDS011;63021;52.836;6.376;2023-04-01T08:17:45;8.68;;;6.93;;
55455;SDS011;63021;52.836;6.376;2023-04-01T08:22:57;8.68;;;7.00;;
55455;SDS011;63021;52.836;6.376;2023-04-01T08:25:29;7.75;;;6.88;;
55455;SDS011;63021;52.836;6.376;2023-04-01T08:30:39;9.95;;;6.72;;
55455;SDS011;63021;52.836;6.376;2023-04-01T08:33:19;8.52;;;7.53;;
55455;SDS011;63021;52.836;6.376;2023-04-01T08:35:53;8.38;;;6.70;;
55455;SDS011;63021;52.836;6.376;2023-04-01T08:38:30;9.32;;;7.40;;
55455;SDS011;63021;52.836;6.376;2023-04-01T08:43:50;10.80;;;7.70;;
55455;SDS011;63021;52.836;6.376;2023-04-01T08:46:39;8.48;;;7.47;;
55455;SDS011;63021;52.836;6.376;2023-04-01T08:52:58;9.77;;;8.15;;
55455;SDS011;63021;52.836;6.376;2023-04-01T08:55:36;8.82;;;6.85;;
55455;SDS011;63021;52.836;6.376;2023-04-01T09:03:55;6.05;;;4.78;;
55455;SDS011;63021;52.836;6.376;2023-04-01T09:23:28;3.97;;;3.40;;
55455;SDS011;63021;52.836;6.376;2023-04-01T09:41:46;5.20;;;4.25;;
55455;SDS011;63021;52.836;6.376;2023-04-01T09:44:56;5.18;;;4.45;;
55455;SDS011;63021;52.836;6.376;2023-04-01T09:50:13;6.53;;;5.88;;
55455;SDS011;63021;52.836;6.376;2023-04-01T09:53:03;7.35;;;6.38;;
55455;SDS011;63021;52.836;6.376;2023-04-01T09:55:54;9.10;;;7.05;;
55455;SDS011;63021;52.836;6.376;2023-04-01T10:03:50;8.25;;;7.25;;
55455;SDS011;63021;52.836;6.376;2023-04-01T10:09:31;10.60;;;7.13;;
55455;SDS011;63021;52.836;6.376;2023-04-01T10:42:50;11.68;;;9.43;;
55455;SDS011;63021;52.836;6.376;2023-04-01T10:57:14;12.27;;;9.80;;
55455;SDS011;63021;52.836;6.376;2023-04-01T11:30:22;5.78;;;4.72;;
55455;SDS011;63021;52.836;6.376;2023-04-01T11:35:35;4.78;;;4.38;;
55455;SDS011;63021;52.836;6.376;2023-04-01T11:49:29;6.70;;;5.18;;
55455;SDS011;63021;52.836;6.376;2023-04-01T11:52:19;5.63;;;4.77;;
55455;SDS011;63021;52.836;6.376;2023-04-01T12:03:05;4.15;;;3.78;;
55455;SDS011;63021;52.836;6.376;2023-04-01T12:05:48;3.60;;;3.30;;
55455;SDS011;63021;52.836;6.376;2023-04-01T12:08:21;3.95;;;3.30;;
55455;SDS011;63021;52.836;6.376;2023-04-01T12:11:02;2.88;;;2.58;;
55455;SDS011;63021;52.836;6.376;2023-04-01T12:13:42;3.50;;;3.20;;
55455;SDS011;63021;52.836;6.376;2023-04-01T12:22:31;3.60;;;3.30;;
55455;SDS011;63021;52.836;6.376;2023-04-01T12:39:56;3.42;;;3.22;;
55455;SDS011;63021;52.836;6.376;2023-04-01T12:47:53;3.55;;;3.25;;
55455;SDS011;63021;52.836;6.376;2023-04-01T13:01:52;5.18;;;4.68;;
55455;SDS011;63021;52.836;6.376;2023-04-01T13:20:36;3.83;;;3.53;;
55455;SDS011;63021;52.836;6.376;2023-04-01T13:26:26;4.20;;;3.85;;
55455;SDS011;63021;52.836;6.376;2023-04-01T13:31:40;22.35;;;12.27;;
55455;SDS011;63021;52.836;6.376;2023-04-01T13:34:32;8.95;;;7.80;;
55455;SDS011;63021;52.836;6.376;2023-04-01T13:42:49;3.67;;;3.38;;
55455;SDS011;63021;52.836;6.376;2023-04-01T13:51:02;4.13;;;3.83;;
55455;SDS011;63021;52.836;6.376;2023-04-01T14:02:51;3.33;;;3.13;;
55455;SDS011;63021;52.836;6.376;2023-04-01T14:16:51;2.60;;;2.40;;
55455;SDS011;63021;52.836;6.376;2023-04-01T14:22:46;3.10;;;2.80;;
55455;SDS011;63021;52.836;6.376;2023-04-01T14:31:28;2.60;;;2.40;;
55455;SDS011;63021;52.836;6.376;2023-04-01T14:45:02;3.75;;;1.92;;
55455;SDS011;63021;52.836;6.376;2023-04-01T14:50:43;1.85;;;1.75;;
55455;SDS011;63021;52.836;6.376;2023-04-01T14:55:55;1.95;;;1.75;;
55455;SDS011;63021;52.836;6.376;2023-04-01T14:58:23;2.78;;;2.58;;
55455;SDS011;63021;52.836;6.376;2023-04-01T15:03:39;1.40;;;1.38;;
55455;SDS011;63021;52.836;6.376;2023-04-01T15:12:04;2.13;;;2.03;;
55455;SDS011;63021;52.836;6.376;2023-04-01T15:19:59;2.40;;;2.30;;
55455;SDS011;63021;52.836;6.376;2023-04-01T15:28:24;2.45;;;2.35;;
55455;SDS011;63021;52.836;6.376;2023-04-01T15:39:10;2.80;;;2.35;;
55455;SDS011;63021;52.836;6.376;2023-04-01T15:57:22;2.80;;;2.60;;
55455;SDS011;63021;52.836;6.376;2023-04-01T15:59:56;2.60;;;2.40;;
55455;SDS011;63021;52.836;6.376;2023-04-01T16:02:35;2.15;;;2.05;;
55455;SDS011;63021;52.836;6.376;2023-04-01T16:22:09;2.17;;;2.05;;
55455;SDS011;63021;52.836;6.376;2023-04-01T16:24:48;2.30;;;2.20;;
55455;SDS011;63021;52.836;6.376;2023-04-01T16:32:46;3.20;;;3.00;;
55455;SDS011;63021;52.836;6.376;2023-04-01T16:35:30;3.70;;;3.40;;
55455;SDS011;63021;52.836;6.376;2023-04-01T16:41:10;3.75;;;3.30;;
55455;SDS011;63021;52.836;6.376;2023-04-01T16:43:48;3.88;;;3.38;;
55455;SDS011;63021;52.836;6.376;2023-04-01T16:46:38;5.63;;;4.72;;
55455;SDS011;63021;52.836;6.376;2023-04-01T16:54:45;4.93;;;4.43;;
55455;SDS011;63021;52.836;6.376;2023-04-01T17:00:26;5.95;;;5.00;;
55455;SDS011;63021;52.836;6.376;2023-04-01T17:21:16;6.47;;;4.35;;
55455;SDS011;63021;52.836;6.376;2023-04-01T17:23:51;5.30;;;4.43;;
55455;SDS011;63021;52.836;6.376;2023-04-01T17:28:51;6.25;;;4.80;;
55455;SDS011;63021;52.836;6.376;2023-04-01T17:31:30;5.22;;;4.72;;
55455;SDS011;63021;52.836;6.376;2023-04-01T17:48:02;6.97;;;5.13;;
55455;SDS011;63021;52.836;6.376;2023-04-01T17:51:09;7.90;;;4.78;;
55455;SDS011;63021;52.836;6.376;2023-04-01T18:07:25;5.95;;;4.65;;
55455;SDS011;63021;52.836;6.376;2023-04-01T18:21:18;5.55;;;4.45;;
55455;SDS011;63021;52.836;6.376;2023-04-01T18:23:56;4.95;;;4.38;;
55455;SDS011;63021;52.836;6.376;2023-04-01T18:26:34;6.95;;;4.53;;
55455;SDS011;63021;52.836;6.376;2023-04-01T18:29:04;5.35;;;4.85;;
55455;SDS011;63021;52.836;6.376;2023-04-01T18:31:43;7.72;;;4.63;;
55455;SDS011;63021;52.836;6.376;2023-04-01T18:34:39;6.50;;;5.20;;
55455;SDS011;63021;52.836;6.376;2023-04-01T18:40:20;5.90;;;5.15;;
55455;SDS011;63021;52.836;6.376;2023-04-01T18:53:41;9.98;;;5.60;;
55455;SDS011;63021;52.836;6.376;2023-04-01T18:56:14;9.50;;;5.78;;
55455;SDS011;63021;52.836;6.376;2023-04-01T19:01:43;6.72;;;5.95;;
55455;SDS011;63021;52.836;6.376;2023-04-01T19:21:29;7.40;;;6.60;;
55455;SDS011;63021;52.836;6.376;2023-04-01T19:26:32;9.10;;;6.40;;
55455;SDS011;63021;52.836;6.376;2023-04-01T19:34:47;8.68;;;6.07;;
55455;SDS011;63021;52.836;6.376;2023-04-01T19:37:32;9.85;;;6.43;;
55455;SDS011;63021;52.836;6.376;2023-04-01T19:46:17;10.07;;;5.72;;
55455;SDS011;63021;52.836;6.376;2023-04-01T20:03:04;7.63;;;5.97;;
55455;SDS011;63021;52.836;6.376;2023-04-01T20:08:32;11.63;;;6.05;;
55455;SDS011;63021;52.836;6.376;2023-04-01T20:13:28;11.70;;;6.40;;
55455;SDS011;63021;52.836;6.376;2023-04-01T20:24:53;10.05;;;6.97;;
55455;SDS011;63021;52.836;6.376;2023-04-01T20:27:24;10.13;;;6.90;;
55455;SDS011;63021;52.836;6.376;2023-04-01T20:30:12;9.40;;;7.20;;
55455;SDS011;63021;52.836;6.376;2023-04-01T20:36:12;12.27;;;7.43;;
55455;SDS011;63021;52.836;6.376;2023-04-01T20:41:28;13.18;;;9.10;;
55455;SDS011;63021;52.836;6.376;2023-04-01T20:44:19;9.85;;;7.32;;
55455;SDS011;63021;52.836;6.376;2023-04-01T20:47:01;11.50;;;7.90;;
55455;SDS011;63021;52.836;6.376;2023-04-01T20:49:40;17.67;;;8.23;;
55455;SDS011;63021;52.836;6.376;2023-04-01T20:57:21;13.77;;;7.72;;
55455;SDS011;63021;52.836;6.376;2023-04-01T20:59:58;15.63;;;7.85;;
55455;SDS011;63021;52.836;6.376;2023-04-01T21:23:45;13.15;;;8.30;;
55455;SDS011;63021;52.836;6.376;2023-04-01T21:46:03;12.50;;;8.02;;
55455;SDS011;63021;52.836;6.376;2023-04-01T21:48:36;20.83;;;9.40;;
55455;SDS011;63021;52.836;6.376;2023-04-01T22:11:14;12.10;;;7.45;;
55455;SDS011;63021;52.836;6.376;2023-04-01T22:16:30;11.18;;;7.43;;
55455;SDS011;63021;52.836;6.376;2023-04-01T22:24:47;10.57;;;7.05;;
55455;SDS011;63021;52.836;6.376;2023-04-01T22:32:47;15.02;;;7.78;;
55455;SDS011;63021;52.836;6.376;2023-04-01T22:43:41;8.20;;;6.82;;
55455;SDS011;63021;52.836;6.376;2023-04-01T22:48:44;14.60;;;6.30;;
55455;SDS011;63021;52.836;6.376;2023-04-01T22:56:19;7.00;;;5.82;;
55455;SDS011;63021;52.836;6.376;2023-04-01T22:58:54;12.05;;;6.10;;
55455;SDS011;63021;52.836;6.376;2023-04-01T23:01:33;11.23;;;6.80;;
55455;SDS011;63021;52.836;6.376;2023-04-01T23:04:04;7.78;;;6.15;;
55455;SDS011;63021;52.836;6.376;2023-04-01T23:06:33;12.65;;;6.53;;
55455;SDS011;63021;52.836;6.376;2023-04-01T23:11:39;10.07;;;6.88;;
55455;SDS011;63021;52.836;6.376;2023-04-01T23:14:23;8.10;;;6.67;;
55455;SDS011;63021;52.836;6.376;2023-04-01T23:17:05;11.35;;;6.07;;
55455;SDS011;63021;52.836;6.376;2023-04-01T23:22:29;12.40;;;6.13;;
55455;SDS011;63021;52.836;6.376;2023-04-01T23:25:00;11.80;;;7.07;;
55455;SDS011;63021;52.836;6.376;2023-04-01T23:28:06;7.35;;;6.47;;
55455;SDS011;63021;52.836;6.376;2023-04-01T23:35:48;8.30;;;6.72;;
55455;SDS011;63021;52.836;6.376;2023-04-01T23:38:16;10.48;;;7.65;;
55455;SDS011;63021;52.836;6.376;2023-04-01T23:40:42;9.90;;;6.72;;
55455;SDS011;63021;52.836;6.376;2023-04-01T23:45:56;11.50;;;6.07;;
55455;SDS011;63021;52.836;6.376;2023-04-01T23:48:29;9.20;;;6.00;;
55455;SDS011;63021;52.836;6.376;2023-04-01T23:50:57;8.75;;;5.93;;
55455;SDS011;63021;52.836;6.376;2023-04-01T23:53:24;10.25;;;5.95;;
55455;SDS011;63021;52.836;6.376;2023-04-01T23:55:51;8.05;;;5.78;;
55455;SDS011;63021;52.836;6.376;2023-04-01T23:58:25;10.57;;;6.50;;
